Not for real navigation | The accuracy of this data is not assured | See disclaimer for more information
ICAO NAME COUNTRY WIND Kt GUST Kt VIS TEMP/DEW BARO
CYCB Cambridge Bay, N. W. T. Canada 27 0 200 -25/-28 29.71
CYCB 170418Z 34027KT 0.125SM IC BLSN VV013 M25/M28 A2971 RMK IC8 PRESFR SLP068
RJCW Wakkanai Airport Japan 28 39 300 -4/-6 29.62
RJCW 170420Z 09028G39KT 0300 R08/0450V1000U BLSN SHSN VV005 M04/M06 Q1003 RMK A2963
KC07 13 21 400 0/0 29.87
KC07 170436Z AUTO 28013G21KT 220V320 0.25SM +SN OVC001 A2987 RMK AO2 P0004
UHMD Buhta Providenja Russia 10 15 500 -16/-18 29.68
UHMD 170300Z 03010G15KT 0500 BLSN VV006 M16/M18 Q1005 RMK QBB200 MT OBSC QFE753/1004
OITR Orumieh Iran 2 0 600 -2/-2 30.12
OITR 170400Z 26002KT 0600 R21/1300D SN FG SCT010 SCT025 OVC060 M02/M02 Q1020

Show more

Close Menu